sensor_id;sensor_type;location;lat;lon;timestamp;pressure;altitude;pressure_sealevel;temperature;humidity
35655;BME280;21773;50.010;19.972;2022-08-11T00:00:21;99462.53;;;24.94;38.60
35655;BME280;21773;50.010;19.972;2022-08-11T00:03:35;99456.41;;;24.79;38.92
35655;BME280;21773;50.010;19.972;2022-08-11T00:06:45;99462.16;;;24.82;38.96
35655;BME280;21773;50.010;19.972;2022-08-11T00:09:54;99458.69;;;24.77;39.16
35655;BME280;21773;50.010;19.972;2022-08-11T00:13:03;99471.44;;;24.73;39.28
35655;BME280;21773;50.010;19.972;2022-08-11T00:16:12;99463.25;;;24.68;39.28
35655;BME280;21773;50.010;19.972;2022-08-11T00:19:20;99466.88;;;24.63;39.46
35655;BME280;21773;50.010;19.972;2022-08-11T00:22:46;99460.94;;;24.56;39.58
35655;BME280;21773;50.010;19.972;2022-08-11T00:25:54;99459.66;;;24.48;39.59
35655;BME280;21773;50.010;19.972;2022-08-11T00:29:07;99463.63;;;24.42;39.60
35655;BME280;21773;50.010;19.972;2022-08-11T00:32:12;99463.38;;;24.39;39.74
35655;BME280;21773;50.010;19.972;2022-08-11T00:35:25;99459.09;;;24.33;40.00
35655;BME280;21773;50.010;19.972;2022-08-11T00:38:51;99466.59;;;24.27;40.02
35655;BME280;21773;50.010;19.972;2022-08-11T00:42:05;99463.09;;;24.22;40.04
35655;BME280;21773;50.010;19.972;2022-08-11T00:45:21;99460.41;;;24.16;40.44
35655;BME280;21773;50.010;19.972;2022-08-11T00:48:32;99461.56;;;24.10;40.28
35655;BME280;21773;50.010;19.972;2022-08-11T00:51:58;99459.97;;;24.04;40.45
35655;BME280;21773;50.010;19.972;2022-08-11T00:55:31;99458.94;;;24.00;40.34
35655;BME280;21773;50.010;19.972;2022-08-11T00:59:15;99459.00;;;23.95;40.62
35655;BME280;21773;50.010;19.972;2022-08-11T01:02:50;99459.91;;;23.91;40.74
35655;BME280;21773;50.010;19.972;2022-08-11T01:06:26;99461.59;;;23.87;40.93
35655;BME280;21773;50.010;19.972;2022-08-11T01:10:06;99457.81;;;23.83;40.73
35655;BME280;21773;50.010;19.972;2022-08-11T01:13:37;99463.91;;;23.80;41.08
35655;BME280;21773;50.010;19.972;2022-08-11T01:20:58;99436.91;;;23.58;40.92
35655;BME280;21773;50.010;19.972;2022-08-11T01:35:37;99450.13;;;23.56;41.49
35655;BME280;21773;50.010;19.972;2022-08-11T01:39:21;99457.66;;;23.50;41.53
35655;BME280;21773;50.010;19.972;2022-08-11T01:46:29;99460.19;;;23.42;41.65
35655;BME280;21773;50.010;19.972;2022-08-11T01:49:42;99453.63;;;23.38;41.80
35655;BME280;21773;50.010;19.972;2022-08-11T01:53:20;99460.53;;;23.35;41.95
35655;BME280;21773;50.010;19.972;2022-08-11T01:56:45;99449.28;;;23.31;42.19
35655;BME280;21773;50.010;19.972;2022-08-11T01:59:58;99456.47;;;23.27;42.15
35655;BME280;21773;50.010;19.972;2022-08-11T02:03:09;99426.72;;;23.06;42.14
35655;BME280;21773;50.010;19.972;2022-08-11T02:06:21;99455.19;;;23.20;42.20
35655;BME280;21773;50.010;19.972;2022-08-11T02:09:59;99452.72;;;23.18;42.58
35655;BME280;21773;50.010;19.972;2022-08-11T02:13:43;99449.75;;;23.15;42.31
35655;BME280;21773;50.010;19.972;2022-08-11T02:17:13;99447.56;;;23.12;42.52
35655;BME280;21773;50.010;19.972;2022-08-11T02:20:22;99445.94;;;23.11;42.45
35655;BME280;21773;50.010;19.972;2022-08-11T02:23:50;99441.53;;;23.10;42.65
35655;BME280;21773;50.010;19.972;2022-08-11T02:27:16;99449.25;;;23.08;42.70
35655;BME280;21773;50.010;19.972;2022-08-11T02:30:24;99450.34;;;23.07;42.58
35655;BME280;21773;50.010;19.972;2022-08-11T02:33:29;99455.06;;;23.06;42.71
35655;BME280;21773;50.010;19.972;2022-08-11T02:36:44;99452.03;;;23.03;43.04
35655;BME280;21773;50.010;19.972;2022-08-11T02:40:06;99446.84;;;23.01;42.94
35655;BME280;21773;50.010;19.972;2022-08-11T02:43:23;99450.72;;;23.00;43.24
35655;BME280;21773;50.010;19.972;2022-08-11T02:46:35;99447.97;;;23.00;43.21
35655;BME280;21773;50.010;19.972;2022-08-11T02:49:49;99451.81;;;22.99;43.09
35655;BME280;21773;50.010;19.972;2022-08-11T02:53:12;99453.75;;;22.99;43.27
35655;BME280;21773;50.010;19.972;2022-08-11T02:56:28;99444.38;;;23.00;43.12
35655;BME280;21773;50.010;19.972;2022-08-11T02:59:44;99451.53;;;23.01;43.36
35655;BME280;21773;50.010;19.972;2022-08-11T03:03:14;99453.47;;;23.00;43.33
35655;BME280;21773;50.010;19.972;2022-08-11T03:06:28;99456.50;;;22.99;43.26
35655;BME280;21773;50.010;19.972;2022-08-11T03:09:43;99451.28;;;22.97;43.16
35655;BME280;21773;50.010;19.972;2022-08-11T03:13:06;99450.47;;;22.97;43.11
35655;BME280;21773;50.010;19.972;2022-08-11T03:16:36;99447.19;;;22.95;43.02
35655;BME280;21773;50.010;19.972;2022-08-11T03:19:59;99453.28;;;22.92;43.36
35655;BME280;21773;50.010;19.972;2022-08-11T03:23:09;99441.78;;;22.84;43.46
35655;BME280;21773;50.010;19.972;2022-08-11T03:26:28;99454.66;;;22.89;43.34
35655;BME280;21773;50.010;19.972;2022-08-11T03:29:36;99457.94;;;22.91;43.73
35655;BME280;21773;50.010;19.972;2022-08-11T03:32:53;99457.63;;;22.93;43.24
35655;BME280;21773;50.010;19.972;2022-08-11T03:41:01;99458.47;;;22.93;43.67
35655;BME280;21773;50.010;19.972;2022-08-11T03:48:19;99446.91;;;22.96;43.25
35655;BME280;21773;50.010;19.972;2022-08-11T03:51:30;99447.13;;;23.00;43.30
35655;BME280;21773;50.010;19.972;2022-08-11T03:54:57;99454.50;;;23.04;43.70
35655;BME280;21773;50.010;19.972;2022-08-11T03:58:29;99451.72;;;23.09;43.53
35655;BME280;21773;50.010;19.972;2022-08-11T04:02:16;99444.53;;;23.13;43.33
35655;BME280;21773;50.010;19.972;2022-08-11T04:13:39;99440.75;;;23.33;43.22
35655;BME280;21773;50.010;19.972;2022-08-11T04:16:46;99433.78;;;23.41;43.05
35655;BME280;21773;50.010;19.972;2022-08-11T04:23:57;99445.16;;;23.58;42.66
35655;BME280;21773;50.010;19.972;2022-08-11T04:28:00;99446.44;;;23.65;42.33
35655;BME280;21773;50.010;19.972;2022-08-11T04:31:23;99448.84;;;23.72;42.65
35655;BME280;21773;50.010;19.972;2022-08-11T04:35:13;99450.44;;;23.78;42.68
35655;BME280;21773;50.010;19.972;2022-08-11T04:38:43;99453.34;;;23.87;42.27
35655;BME280;21773;50.010;19.972;2022-08-11T04:42:05;99460.38;;;23.98;42.33
35655;BME280;21773;50.010;19.972;2022-08-11T04:46:10;99453.63;;;24.09;41.85
35655;BME280;21773;50.010;19.972;2022-08-11T04:49:58;99456.97;;;24.25;41.65
35655;BME280;21773;50.010;19.972;2022-08-11T04:53:33;99463.38;;;24.39;41.89
35655;BME280;21773;50.010;19.972;2022-08-11T04:57:03;99475.00;;;24.54;41.18
35655;BME280;21773;50.010;19.972;2022-08-11T05:00:30;99460.78;;;24.66;40.97
35655;BME280;21773;50.010;19.972;2022-08-11T05:04:22;99475.44;;;24.80;41.07
35655;BME280;21773;50.010;19.972;2022-08-11T05:08:32;99475.00;;;24.92;40.45
35655;BME280;21773;50.010;19.972;2022-08-11T05:12:07;99473.94;;;25.07;40.33
35655;BME280;21773;50.010;19.972;2022-08-11T05:15:18;99475.34;;;25.18;40.68
35655;BME280;21773;50.010;19.972;2022-08-11T05:18:47;99477.66;;;25.29;40.02
35655;BME280;21773;50.010;19.972;2022-08-11T05:22:12;99436.13;;;25.21;39.89
35655;BME280;21773;50.010;19.972;2022-08-11T05:25:35;99469.75;;;25.55;39.66
35655;BME280;21773;50.010;19.972;2022-08-11T05:29:38;99474.13;;;25.70;39.28
35655;BME280;21773;50.010;19.972;2022-08-11T05:33:03;99470.47;;;25.74;39.21
35655;BME280;21773;50.010;19.972;2022-08-11T05:36:28;99480.16;;;25.85;39.38
35655;BME280;21773;50.010;19.972;2022-08-11T05:39:43;99486.28;;;25.96;38.98
35655;BME280;21773;50.010;19.972;2022-08-11T05:43:10;99483.13;;;26.03;38.62
35655;BME280;21773;50.010;19.972;2022-08-11T05:46:38;99497.13;;;26.06;38.63
35655;BME280;21773;50.010;19.972;2022-08-11T05:50:07;99485.97;;;26.11;38.49
35655;BME280;21773;50.010;19.972;2022-08-11T05:53:34;99497.66;;;26.22;38.23
35655;BME280;21773;50.010;19.972;2022-08-11T05:56:58;99494.16;;;26.30;37.59
35655;BME280;21773;50.010;19.972;2022-08-11T06:00:04;99442.97;;;26.05;37.91
35655;BME280;21773;50.010;19.972;2022-08-11T06:03:19;99490.81;;;26.55;37.61
35655;BME280;21773;50.010;19.972;2022-08-11T06:06:26;99500.81;;;26.65;37.34
35655;BME280;21773;50.010;19.972;2022-08-11T06:09:31;99492.41;;;26.70;37.14
35655;BME280;21773;50.010;19.972;2022-08-11T06:12:37;99475.31;;;26.68;36.86
35655;BME280;21773;50.010;19.972;2022-08-11T06:15:45;99491.94;;;26.90;36.54
35655;BME280;21773;50.010;19.972;2022-08-11T06:18:52;99497.53;;;26.99;36.57
35655;BME280;21773;50.010;19.972;2022-08-11T06:21:56;99504.75;;;27.08;36.10
35655;BME280;21773;50.010;19.972;2022-08-11T06:25:01;99496.84;;;27.15;35.96
35655;BME280;21773;50.010;19.972;2022-08-11T06:28:07;99495.88;;;27.20;35.64
35655;BME280;21773;50.010;19.972;2022-08-11T06:31:12;99476.09;;;27.04;35.56
35655;BME280;21773;50.010;19.972;2022-08-11T06:34:28;99503.63;;;27.32;36.60
35655;BME280;21773;50.010;19.972;2022-08-11T06:37:43;99496.66;;;27.43;35.61
35655;BME280;21773;50.010;19.972;2022-08-11T06:40:52;99505.38;;;27.50;35.49
35655;BME280;21773;50.010;19.972;2022-08-11T06:44:23;99499.22;;;27.62;35.94
35655;BME280;21773;50.010;19.972;2022-08-11T06:47:30;99495.72;;;27.78;35.97
35655;BME280;21773;50.010;19.972;2022-08-11T06:50:33;99504.72;;;27.92;35.64
35655;BME280;21773;50.010;19.972;2022-08-11T06:53:56;99497.25;;;28.01;34.96
35655;BME280;21773;50.010;19.972;2022-08-11T06:57:11;99496.16;;;28.11;34.96
35655;BME280;21773;50.010;19.972;2022-08-11T07:00:35;99499.13;;;28.23;34.98
35655;BME280;21773;50.010;19.972;2022-08-11T07:03:44;99502.44;;;28.34;35.02
35655;BME280;21773;50.010;19.972;2022-08-11T07:07:00;99506.69;;;28.49;34.50
35655;BME280;21773;50.010;19.972;2022-08-11T07:10:34;99497.53;;;28.57;33.00
35655;BME280;21773;50.010;19.972;2022-08-11T07:14:01;99501.28;;;28.61;33.95
35655;BME280;21773;50.010;19.972;2022-08-11T07:17:25;99495.25;;;28.67;33.53
35655;BME280;21773;50.010;19.972;2022-08-11T07:20:31;99470.63;;;28.49;33.64
35655;BME280;21773;50.010;19.972;2022-08-11T07:23:54;99490.56;;;28.76;33.46
35655;BME280;21773;50.010;19.972;2022-08-11T07:27:18;99484.34;;;28.88;33.46
35655;BME280;21773;50.010;19.972;2022-08-11T07:30:40;99465.53;;;28.94;33.21
35655;BME280;21773;50.010;19.972;2022-08-11T07:33:48;99492.81;;;29.17;33.00
35655;BME280;21773;50.010;19.972;2022-08-11T07:37:13;99486.56;;;29.20;32.31
35655;BME280;21773;50.010;19.972;2022-08-11T07:40:21;99483.94;;;29.24;32.24
35655;BME280;21773;50.010;19.972;2022-08-11T07:43:25;99485.41;;;29.39;32.84
35655;BME280;21773;50.010;19.972;2022-08-11T07:46:28;99487.59;;;29.62;32.33
35655;BME280;21773;50.010;19.972;2022-08-11T07:49:52;99484.59;;;29.85;31.61
35655;BME280;21773;50.010;19.972;2022-08-11T07:53:14;99486.97;;;30.03;31.94
35655;BME280;21773;50.010;19.972;2022-08-11T07:56:17;99481.28;;;30.21;31.57
35655;BME280;21773;50.010;19.972;2022-08-11T07:59:40;99482.66;;;30.35;31.11
35655;BME280;21773;50.010;19.972;2022-08-11T08:03:18;99484.03;;;30.50;30.50
35655;BME280;21773;50.010;19.972;2022-08-11T08:06:56;99488.88;;;30.62;30.69
35655;BME280;21773;50.010;19.972;2022-08-11T08:10:18;99493.00;;;30.76;30.52
35655;BME280;21773;50.010;19.972;2022-08-11T08:13:40;99486.00;;;30.91;30.31
35655;BME280;21773;50.010;19.972;2022-08-11T08:17:02;99483.44;;;31.07;29.87
35655;BME280;21773;50.010;19.972;2022-08-11T08:20:26;99488.41;;;31.13;29.55
35655;BME280;21773;50.010;19.972;2022-08-11T08:23:32;99477.66;;;31.24;30.18
35655;BME280;21773;50.010;19.972;2022-08-11T08:26:37;99459.09;;;31.16;29.17
35655;BME280;21773;50.010;19.972;2022-08-11T08:29:58;99486.50;;;31.38;30.02
35655;BME280;21773;50.010;19.972;2022-08-11T08:33:21;99477.38;;;31.50;29.60
35655;BME280;21773;50.010;19.972;2022-08-11T08:36:25;99474.75;;;31.65;30.12
35655;BME280;21773;50.010;19.972;2022-08-11T08:39:30;99469.31;;;31.81;28.92
35655;BME280;21773;50.010;19.972;2022-08-11T08:42:38;99472.31;;;31.88;28.40
35655;BME280;21773;50.010;19.972;2022-08-11T08:45:47;99462.91;;;32.05;28.27
35655;BME280;21773;50.010;19.972;2022-08-11T08:48:51;99454.09;;;32.15;28.16
35655;BME280;21773;50.010;19.972;2022-08-11T08:51:58;99458.59;;;32.32;28.18
35655;BME280;21773;50.010;19.972;2022-08-11T08:55:26;99448.78;;;32.50;27.47
35655;BME280;21773;50.010;19.972;2022-08-11T08:58:33;99429.34;;;32.53;27.18
35655;BME280;21773;50.010;19.972;2022-08-11T09:01:45;99452.69;;;32.73;27.08
35655;BME280;21773;50.010;19.972;2022-08-11T09:04:50;99438.78;;;32.89;26.57
35655;BME280;21773;50.010;19.972;2022-08-11T09:07:54;99444.63;;;32.99;26.43
35655;BME280;21773;50.010;19.972;2022-08-11T09:11:00;99442.59;;;33.12;25.66
35655;BME280;21773;50.010;19.972;2022-08-11T09:14:24;99444.09;;;33.22;26.12
35655;BME280;21773;50.010;19.972;2022-08-11T09:17:53;99430.81;;;33.19;25.05
35655;BME280;21773;50.010;19.972;2022-08-11T09:20:57;99438.84;;;33.20;24.84
35655;BME280;21773;50.010;19.972;2022-08-11T09:24:01;99427.47;;;33.13;24.97
35655;BME280;21773;50.010;19.972;2022-08-11T09:27:28;99425.38;;;33.10;26.03
35655;BME280;21773;50.010;19.972;2022-08-11T09:30:32;99423.97;;;33.16;25.81
35655;BME280;21773;50.010;19.972;2022-08-11T09:33:36;99428.31;;;33.29;25.69
35655;BME280;21773;50.010;19.972;2022-08-11T09:36:44;99426.69;;;33.44;25.47
35655;BME280;21773;50.010;19.972;2022-08-11T09:40:07;99410.25;;;33.58;25.40
35655;BME280;21773;50.010;19.972;2022-08-11T09:43:32;99417.56;;;33.63;24.07
35655;BME280;21773;50.010;19.972;2022-08-11T09:46:54;99419.75;;;33.69;24.37
35655;BME280;21773;50.010;19.972;2022-08-11T09:50:03;99414.72;;;33.75;23.95
35655;BME280;21773;50.010;19.972;2022-08-11T09:53:09;99412.06;;;33.82;23.61
35655;BME280;21773;50.010;19.972;2022-08-11T09:56:33;99407.41;;;33.86;22.73
35655;BME280;21773;50.010;19.972;2022-08-11T09:59:55;99403.25;;;33.80;23.12
35655;BME280;21773;50.010;19.972;2022-08-11T10:03:16;99401.53;;;33.91;23.93
35655;BME280;21773;50.010;19.972;2022-08-11T10:06:20;99396.97;;;34.02;23.51
35655;BME280;21773;50.010;19.972;2022-08-11T10:09:47;99403.56;;;33.94;23.34
35655;BME280;21773;50.010;19.972;2022-08-11T10:12:56;99396.28;;;33.89;23.30
35655;BME280;21773;50.010;19.972;2022-08-11T10:16:04;99393.94;;;33.91;23.31
35655;BME280;21773;50.010;19.972;2022-08-11T10:19:18;99388.69;;;33.90;22.54
35655;BME280;21773;50.010;19.972;2022-08-11T10:22:23;99377.28;;;33.99;22.98
35655;BME280;21773;50.010;19.972;2022-08-11T10:25:44;99365.59;;;34.12;23.57
35655;BME280;21773;50.010;19.972;2022-08-11T10:29:03;99356.09;;;34.17;22.21
35655;BME280;21773;50.010;19.972;2022-08-11T10:32:38;99354.56;;;34.00;22.32
35655;BME280;21773;50.010;19.972;2022-08-11T10:36:03;99358.47;;;33.96;22.51
35655;BME280;21773;50.010;19.972;2022-08-11T10:39:19;99345.84;;;33.86;22.64
35655;BME280;21773;50.010;19.972;2022-08-11T10:42:23;99345.72;;;33.98;22.95
35655;BME280;21773;50.010;19.972;2022-08-11T10:45:58;99342.34;;;34.08;22.44
35655;BME280;21773;50.010;19.972;2022-08-11T10:49:32;99338.50;;;34.16;22.06
35655;BME280;21773;50.010;19.972;2022-08-11T10:52:37;99332.22;;;34.19;21.79
35655;BME280;21773;50.010;19.972;2022-08-11T10:56:01;99325.88;;;34.22;22.42
35655;BME280;21773;50.010;19.972;2022-08-11T10:59:23;99330.75;;;34.25;22.27
35655;BME280;21773;50.010;19.972;2022-08-11T11:02:29;99330.53;;;34.34;22.27
35655;BME280;21773;50.010;19.972;2022-08-11T11:05:37;99330.81;;;34.29;21.43
35655;BME280;21773;50.010;19.972;2022-08-11T11:09:03;99330.66;;;34.22;21.90
35655;BME280;21773;50.010;19.972;2022-08-11T11:12:12;99339.59;;;34.12;22.09
35655;BME280;21773;50.010;19.972;2022-08-11T11:15:35;99342.63;;;34.03;22.32
35655;BME280;21773;50.010;19.972;2022-08-11T11:19:08;99338.28;;;33.86;23.50
35655;BME280;21773;50.010;19.972;2022-08-11T11:22:15;99339.94;;;33.72;23.43
35655;BME280;21773;50.010;19.972;2022-08-11T11:25:50;99341.03;;;33.51;23.08
35655;BME280;21773;50.010;19.972;2022-08-11T11:29:19;99337.91;;;33.37;24.49
35655;BME280;21773;50.010;19.972;2022-08-11T11:32:31;99335.81;;;33.34;24.63
35655;BME280;21773;50.010;19.972;2022-08-11T11:35:47;99333.13;;;33.38;24.85
35655;BME280;21773;50.010;19.972;2022-08-11T11:38:53;99326.06;;;33.44;24.97
35655;BME280;21773;50.010;19.972;2022-08-11T11:41:59;99324.25;;;33.51;24.47
35655;BME280;21773;50.010;19.972;2022-08-11T11:45:05;99316.13;;;33.62;24.65
35655;BME280;21773;50.010;19.972;2022-08-11T11:48:10;99308.50;;;33.78;24.30
35655;BME280;21773;50.010;19.972;2022-08-11T11:51:14;99303.38;;;34.00;24.59
35655;BME280;21773;50.010;19.972;2022-08-11T11:54:22;99298.03;;;34.10;22.61
35655;BME280;21773;50.010;19.972;2022-08-11T11:57:28;99278.44;;;34.10;22.64
35655;BME280;21773;50.010;19.972;2022-08-11T12:01:00;99272.63;;;34.00;21.46
35655;BME280;21773;50.010;19.972;2022-08-11T12:04:21;99269.75;;;33.96;20.47
35655;BME280;21773;50.010;19.972;2022-08-11T12:07:25;99269.28;;;33.75;21.91
35655;BME280;21773;50.010;19.972;2022-08-11T12:11:01;99259.00;;;33.63;22.09
35655;BME280;21773;50.010;19.972;2022-08-11T12:14:22;99272.75;;;33.53;22.47
35655;BME280;21773;50.010;19.972;2022-08-11T12:17:30;99267.88;;;33.49;23.18
35655;BME280;21773;50.010;19.972;2022-08-11T12:20:33;99267.66;;;33.58;23.68
35655;BME280;21773;50.010;19.972;2022-08-11T12:23:38;99282.75;;;33.69;23.69
35655;BME280;21773;50.010;19.972;2022-08-11T12:27:06;99281.63;;;33.74;25.37
35655;BME280;21773;50.010;19.972;2022-08-11T12:30:27;99298.88;;;33.76;24.40
35655;BME280;21773;50.010;19.972;2022-08-11T12:33:31;99306.38;;;33.72;25.67
35655;BME280;21773;50.010;19.972;2022-08-11T12:36:41;99302.91;;;33.63;26.92
35655;BME280;21773;50.010;19.972;2022-08-11T12:39:49;99300.09;;;33.43;26.49
35655;BME280;21773;50.010;19.972;2022-08-11T12:43:32;99288.41;;;33.22;26.75
35655;BME280;21773;50.010;19.972;2022-08-11T12:46:59;99296.84;;;33.10;27.09
35655;BME280;21773;50.010;19.972;2022-08-11T12:50:04;99327.13;;;32.92;29.42
35655;BME280;21773;50.010;19.972;2022-08-11T12:53:27;99309.50;;;32.05;27.49
35655;BME280;21773;50.010;19.972;2022-08-11T12:56:37;99365.56;;;31.63;29.33
35655;BME280;21773;50.010;19.972;2022-08-11T13:00:06;99388.81;;;30.98;30.61
35655;BME280;21773;50.010;19.972;2022-08-11T13:03:27;99379.31;;;30.45;31.76
35655;BME280;21773;50.010;19.972;2022-08-11T13:06:57;99374.91;;;30.03;32.26
35655;BME280;21773;50.010;19.972;2022-08-11T13:10:05;99376.63;;;29.66;32.52
35655;BME280;21773;50.010;19.972;2022-08-11T13:13:12;99372.84;;;29.33;34.06
35655;BME280;21773;50.010;19.972;2022-08-11T13:16:37;99369.34;;;29.06;34.71
35655;BME280;21773;50.010;19.972;2022-08-11T13:19:57;99368.59;;;28.80;35.27
35655;BME280;21773;50.010;19.972;2022-08-11T13:23:02;99367.16;;;28.57;35.51
35655;BME280;21773;50.010;19.972;2022-08-11T13:26:06;99367.16;;;28.39;36.18
35655;BME280;21773;50.010;19.972;2022-08-11T13:29:10;99359.69;;;28.23;37.30
35655;BME280;21773;50.010;19.972;2022-08-11T13:32:19;99360.94;;;28.08;37.74
35655;BME280;21773;50.010;19.972;2022-08-11T13:35:28;99358.00;;;27.96;38.50
35655;BME280;21773;50.010;19.972;2022-08-11T13:38:33;99349.03;;;27.82;38.80
35655;BME280;21773;50.010;19.972;2022-08-11T13:41:36;99351.78;;;27.65;39.20
35655;BME280;21773;50.010;19.972;2022-08-11T13:44:43;99354.47;;;27.47;40.24
35655;BME280;21773;50.010;19.972;2022-08-11T13:47:49;99337.81;;;27.39;40.94
35655;BME280;21773;50.010;19.972;2022-08-11T13:50:56;99335.03;;;27.30;41.22
35655;BME280;21773;50.010;19.972;2022-08-11T13:54:21;99325.38;;;27.19;40.68
35655;BME280;21773;50.010;19.972;2022-08-11T13:57:25;99331.56;;;27.16;41.37
35655;BME280;21773;50.010;19.972;2022-08-11T14:00:50;99336.63;;;27.23;41.26
35655;BME280;21773;50.010;19.972;2022-08-11T14:03:58;99339.25;;;27.28;41.71
35655;BME280;21773;50.010;19.972;2022-08-11T14:07:31;99327.41;;;27.36;42.21
35655;BME280;21773;50.010;19.972;2022-08-11T14:10:37;99325.78;;;27.43;42.15
35655;BME280;21773;50.010;19.972;2022-08-11T14:13:42;99331.88;;;27.54;42.71
35655;BME280;21773;50.010;19.972;2022-08-11T14:16:51;99316.25;;;27.67;42.98
35655;BME280;21773;50.010;19.972;2022-08-11T14:20:00;99311.03;;;27.82;41.83
35655;BME280;21773;50.010;19.972;2022-08-11T14:23:28;99313.03;;;27.99;43.30
35655;BME280;21773;50.010;19.972;2022-08-11T14:26:33;99316.16;;;28.15;42.58
35655;BME280;21773;50.010;19.972;2022-08-11T14:29:40;99313.19;;;28.28;41.76
35655;BME280;21773;50.010;19.972;2022-08-11T14:32:50;99316.59;;;28.42;42.00
35655;BME280;21773;50.010;19.972;2022-08-11T14:35:58;99326.22;;;28.54;41.05
35655;BME280;21773;50.010;19.972;2022-08-11T14:39:06;99315.56;;;28.64;41.93
35655;BME280;21773;50.010;19.972;2022-08-11T14:42:16;99312.97;;;28.76;41.02
35655;BME280;21773;50.010;19.972;2022-08-11T14:45:38;99309.00;;;28.86;40.83
35655;BME280;21773;50.010;19.972;2022-08-11T14:49:00;99309.28;;;28.93;39.56
35655;BME280;21773;50.010;19.972;2022-08-11T14:52:07;99307.97;;;28.99;38.46
35655;BME280;21773;50.010;19.972;2022-08-11T14:55:11;99312.69;;;29.07;37.90
35655;BME280;21773;50.010;19.972;2022-08-11T14:58:33;99305.31;;;29.11;37.25
35655;BME280;21773;50.010;19.972;2022-08-11T15:01:37;99297.78;;;29.12;36.72
35655;BME280;21773;50.010;19.972;2022-08-11T15:04:59;99295.34;;;29.10;35.14
35655;BME280;21773;50.010;19.972;2022-08-11T15:08:05;99300.91;;;29.10;36.05
35655;BME280;21773;50.010;19.972;2022-08-11T15:11:10;99269.91;;;29.00;37.77
35655;BME280;21773;50.010;19.972;2022-08-11T15:14:28;99287.50;;;29.12;37.50
35655;BME280;21773;50.010;19.972;2022-08-11T15:17:59;99290.75;;;29.14;37.21
35655;BME280;21773;50.010;19.972;2022-08-11T15:21:03;99296.31;;;29.14;37.24
35655;BME280;21773;50.010;19.972;2022-08-11T15:24:25;99294.66;;;29.13;37.29
35655;BME280;21773;50.010;19.972;2022-08-11T15:27:32;99291.63;;;29.06;37.56
35655;BME280;21773;50.010;19.972;2022-08-11T15:30:55;99299.75;;;29.11;37.29
35655;BME280;21773;50.010;19.972;2022-08-11T15:34:24;99292.06;;;29.08;37.60
35655;BME280;21773;50.010;19.972;2022-08-11T15:37:54;99303.53;;;29.07;37.18
35655;BME280;21773;50.010;19.972;2022-08-11T15:41:03;99293.09;;;29.04;37.89
35655;BME280;21773;50.010;19.972;2022-08-11T15:44:29;99292.13;;;29.00;37.20
35655;BME280;21773;50.010;19.972;2022-08-11T15:48:11;99286.75;;;28.95;38.31
35655;BME280;21773;50.010;19.972;2022-08-11T15:51:18;99292.13;;;29.00;38.32
35655;BME280;21773;50.010;19.972;2022-08-11T15:54:28;99287.06;;;29.02;38.69
35655;BME280;21773;50.010;19.972;2022-08-11T15:57:34;99287.69;;;29.07;38.10
35655;BME280;21773;50.010;19.972;2022-08-11T16:00:56;99289.78;;;29.10;37.74
35655;BME280;21773;50.010;19.972;2022-08-11T16:04:20;99280.78;;;29.13;37.51
35655;BME280;21773;50.010;19.972;2022-08-11T16:07:30;99282.41;;;29.14;37.19
35655;BME280;21773;50.010;19.972;2022-08-11T16:10:42;99274.47;;;29.04;37.09
35655;BME280;21773;50.010;19.972;2022-08-11T16:13:52;99276.41;;;29.12;37.93
35655;BME280;21773;50.010;19.972;2022-08-11T16:17:16;99271.81;;;29.08;36.85
35655;BME280;21773;50.010;19.972;2022-08-11T16:20:22;99266.50;;;29.03;37.02
35655;BME280;21773;50.010;19.972;2022-08-11T16:23:26;99266.31;;;28.99;37.17
35655;BME280;21773;50.010;19.972;2022-08-11T16:26:31;99265.19;;;29.00;37.66
35655;BME280;21773;50.010;19.972;2022-08-11T16:29:59;99262.41;;;29.00;38.34
35655;BME280;21773;50.010;19.972;2022-08-11T16:33:04;99262.22;;;29.05;38.42
35655;BME280;21773;50.010;19.972;2022-08-11T16:36:29;99264.50;;;29.03;37.84
35655;BME280;21773;50.010;19.972;2022-08-11T16:39:51;99256.38;;;28.98;34.62
35655;BME280;21773;50.010;19.972;2022-08-11T16:42:55;99255.94;;;28.88;33.12
35655;BME280;21773;50.010;19.972;2022-08-11T16:46:20;99262.00;;;28.81;32.59
35655;BME280;21773;50.010;19.972;2022-08-11T16:49:43;99256.78;;;28.71;32.76
35655;BME280;21773;50.010;19.972;2022-08-11T16:52:53;99256.72;;;28.41;33.53
35655;BME280;21773;50.010;19.972;2022-08-11T16:55:58;99266.84;;;28.37;34.96
35655;BME280;21773;50.010;19.972;2022-08-11T16:59:08;99269.00;;;28.23;35.39
35655;BME280;21773;50.010;19.972;2022-08-11T17:02:20;99267.03;;;28.07;35.87
35655;BME280;21773;50.010;19.972;2022-08-11T17:05:43;99264.94;;;27.95;36.62
35655;BME280;21773;50.010;19.972;2022-08-11T17:09:06;99262.50;;;27.85;36.23
35655;BME280;21773;50.010;19.972;2022-08-11T17:12:30;99259.53;;;27.73;36.77
35655;BME280;21773;50.010;19.972;2022-08-11T17:15:55;99258.22;;;27.62;36.93
35655;BME280;21773;50.010;19.972;2022-08-11T17:19:13;99253.00;;;27.51;36.77
35655;BME280;21773;50.010;19.972;2022-08-11T17:22:40;99251.69;;;27.40;37.17
35655;BME280;21773;50.010;19.972;2022-08-11T17:26:02;99253.94;;;27.38;37.68
35655;BME280;21773;50.010;19.972;2022-08-11T17:29:06;99255.41;;;27.36;37.92
35655;BME280;21773;50.010;19.972;2022-08-11T17:32:14;99262.09;;;27.35;37.88
35655;BME280;21773;50.010;19.972;2022-08-11T17:35:58;99256.53;;;27.26;38.00
35655;BME280;21773;50.010;19.972;2022-08-11T17:39:02;99258.28;;;27.22;38.34
35655;BME280;21773;50.010;19.972;2022-08-11T17:42:06;99273.09;;;27.09;38.88
35655;BME280;21773;50.010;19.972;2022-08-11T17:45:29;99277.94;;;26.95;39.45
35655;BME280;21773;50.010;19.972;2022-08-11T17:48:51;99276.22;;;26.85;39.87
35655;BME280;21773;50.010;19.972;2022-08-11T17:51:56;99273.44;;;26.77;39.82